Aptos, California
Current Conditions -  °F | °C
As of 11:22 AM on Saturday 20 Dec 2014 (Local Time) from KWVI Reporting Station
Broken Clouds Broken Clouds  
Wind Chill: 16°   Ceiling: 1800
Heat Index: 16°   Visibility: 10mi
Dew Point: 16°   Wind: 0mph
Humidity: 100%   Direction: NA
Pressure: 30.22"   Gusts: NA
Location:  36.98°N, 121.89°W
Report Text: KWVI 201922Z AUTO 00000KT 10SM SCT008 BKN018 16/16 A3022 RMK AO2 T01610161 $
Loading
Personal Weather Stations






























Interactive Weather Map New forecast layout! Learn more

10-Day Weather Forecast

Advertisements
Track Severe Weather on mobile